createdAt,value
2018-08-28T00:01:48.659Z,100316.71
2018-08-28T00:04:17.181Z,100322.67
2018-08-28T00:06:45.671Z,100320.42
2018-08-28T00:09:14.279Z,100327.48
2018-08-28T00:11:42.674Z,100322.74
2018-08-28T00:14:11.051Z,100322.64
2018-08-28T00:16:39.403Z,100326.52
2018-08-28T00:19:07.873Z,100322.02
2018-08-28T00:21:36.319Z,100323.12
2018-08-28T00:24:04.729Z,100319.66
2018-08-28T00:26:33.237Z,100321.67
2018-08-28T00:29:01.734Z,100328.95
2018-08-28T00:31:30.141Z,100336.14
2018-08-28T00:33:58.538Z,100336.14
2018-08-28T00:36:26.959Z,100332.78
2018-08-28T00:38:55.373Z,100339.17
2018-08-28T00:41:23.735Z,100333.12
2018-08-28T00:43:52.133Z,100348.13
2018-08-28T00:46:20.592Z,100358.32
2018-08-28T00:48:49.159Z,100361.25
2018-08-28T00:51:17.563Z,100368.64
2018-08-28T00:53:46.025Z,100366.59
2018-08-28T00:56:14.401Z,100375.34
2018-08-28T00:58:42.925Z,100375.58
2018-08-28T01:01:11.287Z,100378.46
2018-08-28T01:03:39.736Z,100382.02
2018-08-28T01:06:08.248Z,100391.45
2018-08-28T01:08:36.835Z,100388.75
2018-08-28T01:11:05.559Z,100390.20
2018-08-28T01:13:33.967Z,100396.15
2018-08-28T01:16:02.985Z,100401.77
2018-08-28T01:18:31.547Z,100399.75
2018-08-28T01:21:01.072Z,100398.88
2018-08-28T01:23:29.663Z,100396.67
2018-08-28T01:25:58.597Z,100397.34
2018-08-28T01:28:27.521Z,100393.16
2018-08-28T01:30:56.189Z,100393.80
2018-08-28T01:33:24.841Z,100398.65
2018-08-28T01:35:53.621Z,100399.98
2018-08-28T01:38:22.303Z,100395.72
2018-08-28T01:40:50.930Z,100402.69
2018-08-28T01:43:24.657Z,100403.45
2018-08-28T01:45:54.886Z,100403.59
2018-08-28T01:48:23.681Z,100409.76
2018-08-28T01:50:52.544Z,100410.95
2018-08-28T01:53:21.381Z,100410.77
2018-08-28T01:55:50.338Z,100411.23
2018-08-28T01:58:19.235Z,100411.58
2018-08-28T02:00:48.078Z,100415.22
2018-08-28T02:03:17.409Z,100415.46
2018-08-28T02:05:46.287Z,100424.39
2018-08-28T02:08:15.707Z,100425.59
2018-08-28T02:10:46.054Z,100426.60
2018-08-28T02:13:14.810Z,100424.97
2018-08-28T02:15:43.497Z,100419.73
2018-08-28T02:18:12.346Z,100424.88
2018-08-28T02:20:41.384Z,100425.02
2018-08-28T02:23:10.133Z,100431.23
2018-08-28T02:25:39.006Z,100434.59
2018-08-28T02:28:07.808Z,100439.11
2018-08-28T02:33:17.937Z,100439.77
2018-08-28T02:35:48.247Z,100443.70
2018-08-28T02:38:17.345Z,100444.78
2018-08-28T02:40:46.389Z,100448.10
2018-08-28T02:43:15.195Z,100450.44
2018-08-28T02:45:43.865Z,100456.98
2018-08-28T02:48:13.767Z,100454.16
2018-08-28T02:50:42.693Z,100458.31
2018-08-28T02:53:11.478Z,100458.94
2018-08-28T02:55:40.247Z,100466.82
2018-08-28T02:58:09.112Z,100457.99
2018-08-28T03:00:37.923Z,100455.69
2018-08-28T03:03:06.761Z,100459.34
2018-08-28T03:05:36.083Z,100468.31
2018-08-28T03:08:04.808Z,100475.91
2018-08-28T03:10:34.991Z,100471.88
2018-08-28T03:13:03.677Z,100477.75
2018-08-28T03:15:32.284Z,100475.98
2018-08-28T03:18:00.967Z,100473.29
2018-08-28T03:20:29.601Z,100478.22
2018-08-28T03:22:58.293Z,100484.86
2018-08-28T03:25:26.898Z,100485.21
2018-08-28T03:27:55.495Z,100485.92
2018-08-28T03:30:24.477Z,100488.47
2018-08-28T03:32:53.780Z,100488.66
2018-08-28T03:35:23.042Z,100494.91
2018-08-28T03:37:53.585Z,100500.91
2018-08-28T03:40:22.327Z,100504.62
2018-08-28T03:42:50.924Z,100502.50
2018-08-28T03:45:19.703Z,100506.74
2018-08-28T03:47:48.405Z,100508.18
2018-08-28T03:50:17.051Z,100503.22
2018-08-28T03:52:45.658Z,100507.23
2018-08-28T03:55:14.347Z,100510.02
2018-08-28T03:57:43.023Z,100515.94
2018-08-28T04:00:12.235Z,100516.74
2018-08-28T04:02:40.948Z,100522.48
2018-08-28T04:05:10.228Z,100519.70
2018-08-28T04:07:38.970Z,100524.98
2018-08-28T04:10:07.663Z,100521.61
2018-08-28T04:12:36.387Z,100527.86
2018-08-28T04:15:06.239Z,100528.28
2018-08-28T04:17:39.277Z,100531.21
2018-08-28T04:20:08.220Z,100527.09
2018-08-28T04:22:36.958Z,100527.27
2018-08-28T04:25:05.896Z,100542.00
2018-08-28T04:27:34.597Z,100541.44
2018-08-28T04:30:03.392Z,100538.56
2018-08-28T04:32:46.751Z,100539.83
2018-08-28T04:35:15.220Z,100547.45
2018-08-28T04:37:43.661Z,100546.97
2018-08-28T04:40:12.150Z,100544.12
2018-08-28T04:42:40.605Z,100545.27
2018-08-28T04:45:09.156Z,100549.39
2018-08-28T04:47:37.667Z,100551.75
2018-08-28T04:50:06.518Z,100552.20
2018-08-28T04:52:35.078Z,100554.69
2018-08-28T04:55:03.701Z,100557.49
2018-08-28T04:57:32.058Z,100558.98
2018-08-28T05:00:00.488Z,100559.97
2018-08-28T05:02:33.124Z,100568.98
2018-08-28T05:05:01.630Z,100570.23
2018-08-28T05:07:30.281Z,100574.95
2018-08-28T05:09:58.708Z,100571.70
2018-08-28T05:12:27.161Z,100572.17
2018-08-28T05:14:55.568Z,100578.66
2018-08-28T05:17:24.175Z,100577.08
2018-08-28T05:19:53.012Z,100576.89
2018-08-28T05:22:21.757Z,100576.74
2018-08-28T05:24:50.356Z,100575.46
2018-08-28T05:27:18.929Z,100585.80
2018-08-28T05:29:47.495Z,100581.92
2018-08-28T05:32:15.954Z,100587.56
2018-08-28T05:34:44.581Z,100591.94
2018-08-28T05:37:13.264Z,100591.37
2018-08-28T05:39:41.830Z,100589.57
2018-08-28T05:42:10.377Z,100594.31
2018-08-28T05:44:38.776Z,100593.87
2018-08-28T05:47:07.331Z,100597.94
2018-08-28T05:49:35.914Z,100592.89
2018-08-28T05:52:04.290Z,100595.04
2018-08-28T05:54:32.710Z,100593.61
2018-08-28T05:57:01.150Z,100597.94
2018-08-28T05:59:29.517Z,100592.47
2018-08-28T06:01:57.982Z,100603.14
2018-08-28T06:04:26.378Z,100596.81
2018-08-28T06:06:54.872Z,100594.36
2018-08-28T06:09:23.427Z,100597.92
2018-08-28T06:11:51.857Z,100600.84
2018-08-28T06:14:20.403Z,100603.95
2018-08-28T06:16:48.951Z,100602.78
2018-08-28T06:19:17.521Z,100611.48
2018-08-28T06:21:45.937Z,100614.23
2018-08-28T06:24:14.368Z,100615.12
2018-08-28T06:26:42.893Z,100611.09
2018-08-28T06:29:11.510Z,100611.03
2018-08-28T06:31:39.928Z,100612.13
2018-08-28T06:34:08.419Z,100613.23
2018-08-28T06:36:36.904Z,100622.12
2018-08-28T06:39:07.515Z,100619.03
2018-08-28T06:41:35.940Z,100622.58
2018-08-28T06:44:04.359Z,100622.12
2018-08-28T06:46:32.858Z,100619.11
2018-08-28T06:49:01.296Z,100621.79
2018-08-28T06:51:29.820Z,100621.86
2018-08-28T06:53:58.325Z,100620.34
2018-08-28T06:56:26.726Z,100620.96
2018-08-28T06:58:55.245Z,100624.67
2018-08-28T07:01:23.710Z,100630.86
2018-08-28T07:03:52.113Z,100633.14
2018-08-28T07:06:20.586Z,100639.43
2018-08-28T07:08:49.128Z,100633.78
2018-08-28T07:11:17.597Z,100637.64
2018-08-28T07:13:46.296Z,100641.69
2018-08-28T07:16:14.741Z,100642.52
2018-08-28T07:18:43.217Z,100648.68
2018-08-28T07:21:11.618Z,100644.88
2018-08-28T07:23:40.080Z,100647.84
2018-08-28T07:26:08.504Z,100643.80
2018-08-28T07:28:36.993Z,100649.09
2018-08-28T07:31:05.394Z,100651.84
2018-08-28T07:33:33.816Z,100649.95
2018-08-28T07:36:02.214Z,100648.64
2018-08-28T07:38:30.776Z,100651.03
2018-08-28T07:40:59.351Z,100654.69
2018-08-28T07:43:27.838Z,100649.68
2018-08-28T07:45:56.420Z,100648.78
2018-08-28T07:48:25.022Z,100660.63
2018-08-28T07:50:53.592Z,100656.73
2018-08-28T07:53:21.958Z,100660.11
2018-08-28T07:55:50.454Z,100663.09
2018-08-28T07:58:19.118Z,100672.66
2018-08-28T08:00:47.838Z,100663.67
2018-08-28T08:03:20.361Z,100669.02
2018-08-28T08:05:48.960Z,100667.23
2018-08-28T08:08:17.522Z,100666.95
2018-08-28T08:10:46.010Z,100669.68
2018-08-28T08:13:14.441Z,100669.02
2018-08-28T08:15:42.904Z,100677.24
2018-08-28T08:18:11.326Z,100667.00
2018-08-28T08:20:39.976Z,100673.82
2018-08-28T08:23:08.522Z,100673.02
2018-08-28T08:25:36.958Z,100682.73
2018-08-28T08:28:05.476Z,100676.34
2018-08-28T08:30:33.962Z,100682.11
2018-08-28T08:33:02.456Z,100676.59
2018-08-28T08:35:30.972Z,100679.77
2018-08-28T08:37:59.503Z,100681.13
2018-08-28T08:40:27.938Z,100681.90
2018-08-28T08:42:56.390Z,100681.80
2018-08-28T08:45:24.830Z,100684.53
2018-08-28T08:47:53.353Z,100681.98
2018-08-28T08:50:21.960Z,100675.41
2018-08-28T08:52:50.690Z,100674.56
2018-08-28T08:55:19.163Z,100676.17
2018-08-28T08:57:47.743Z,100674.04
2018-08-28T09:00:16.272Z,100672.82
2018-08-28T09:02:44.860Z,100678.24
2018-08-28T09:05:14.250Z,100676.72
2018-08-28T09:07:42.961Z,100676.63
2018-08-28T09:10:12.446Z,100671.66
2018-08-28T09:12:41.021Z,100676.42
2018-08-28T09:15:09.469Z,100667.75
2018-08-28T09:17:37.891Z,100674.56
2018-08-28T09:20:06.372Z,100672.36
2018-08-28T09:22:35.124Z,100679.48
2018-08-28T09:25:04.325Z,100667.05
2018-08-28T09:27:32.826Z,100670.20
2018-08-28T09:30:01.422Z,100670.35
2018-08-28T09:32:29.977Z,100664.80
2018-08-28T09:35:02.852Z,100666.63
2018-08-28T09:37:31.247Z,100664.28
2018-08-28T09:40:00.152Z,100666.98
2018-08-28T09:42:28.605Z,100659.77
2018-08-28T09:44:57.494Z,100659.20
2018-08-28T09:47:25.955Z,100664.28
2018-08-28T09:49:54.855Z,100666.33
2018-08-28T09:52:23.317Z,100666.77
2018-08-28T09:54:51.990Z,100665.22
2018-08-28T10:00:04.226Z,100669.91
2018-08-28T10:02:33.330Z,100667.70
2018-08-28T10:05:02.570Z,100667.18
2018-08-28T10:07:31.085Z,100669.20
2018-08-28T10:10:13.255Z,100673.61
2018-08-28T10:12:42.048Z,100664.50
2018-08-28T10:15:10.698Z,100664.38
2018-08-28T10:17:39.855Z,100670.70
2018-08-28T10:20:08.420Z,100667.66
2018-08-28T10:22:36.974Z,100663.38
2018-08-28T10:25:05.581Z,100670.72
2018-08-28T10:27:34.201Z,100663.27
2018-08-28T10:30:03.052Z,100666.09
2018-08-28T10:32:31.736Z,100664.84
2018-08-28T10:35:00.554Z,100667.69
2018-08-28T10:37:29.868Z,100661.20
2018-08-28T10:39:58.380Z,100666.31
2018-08-28T10:42:26.795Z,100671.35
2018-08-28T10:44:55.582Z,100668.20
2018-08-28T10:47:24.284Z,100667.16
2018-08-28T10:49:53.066Z,100666.09
2018-08-28T10:52:21.536Z,100666.24
2018-08-28T10:54:52.268Z,100667.84
2018-08-28T10:57:21.711Z,100664.05
2018-08-28T10:59:50.791Z,100658.94
2018-08-28T11:02:21.159Z,100663.16
2018-08-28T11:04:50.660Z,100665.23
2018-08-28T11:07:19.581Z,100663.38
2018-08-28T11:09:48.329Z,100670.20
2018-08-28T11:12:17.335Z,100676.17
2018-08-28T11:14:46.220Z,100670.37
2018-08-28T11:17:15.245Z,100669.28
2018-08-28T11:19:43.743Z,100662.02
2018-08-28T11:22:12.318Z,100664.23
2018-08-28T11:24:41.123Z,100667.48
2018-08-28T11:27:09.835Z,100668.77
2018-08-28T11:29:38.478Z,100661.70
2018-08-28T11:32:07.190Z,100666.67
2018-08-28T11:34:35.749Z,100661.88
2018-08-28T11:37:04.496Z,100669.75
2018-08-28T11:39:33.309Z,100668.13
2018-08-28T11:42:02.247Z,100665.64
2018-08-28T11:44:30.988Z,100669.31
2018-08-28T11:46:59.845Z,100673.17
2018-08-28T11:49:29.709Z,100662.30
2018-08-28T11:51:59.769Z,100673.62
2018-08-28T11:54:29.586Z,100662.03
2018-08-28T11:56:58.410Z,100665.48
2018-08-28T11:59:27.080Z,100657.22
2018-08-28T12:01:55.782Z,100665.98
2018-08-28T12:04:26.119Z,100665.90
2018-08-28T12:06:55.458Z,100659.12
2018-08-28T12:09:24.642Z,100662.57
2018-08-28T12:11:54.422Z,100669.80
2018-08-28T12:14:27.513Z,100669.69
2018-08-28T12:16:56.183Z,100661.45
2018-08-28T12:19:24.746Z,100664.70
2018-08-28T12:21:53.125Z,100658.69
2018-08-28T12:24:22.424Z,100651.56
2018-08-28T12:26:51.060Z,100647.34
2018-08-28T12:29:19.400Z,100650.01
2018-08-28T12:31:47.856Z,100645.32
2018-08-28T12:34:16.350Z,100654.17
2018-08-28T12:36:44.875Z,100647.73
2018-08-28T12:39:14.112Z,100638.62
2018-08-28T12:41:42.668Z,100642.14
2018-08-28T12:44:11.431Z,100637.91
2018-08-28T12:46:39.690Z,100627.48
2018-08-28T12:49:08.315Z,100632.17
2018-08-28T12:51:36.800Z,100632.95
2018-08-28T12:54:05.382Z,100636.41
2018-08-28T12:56:33.917Z,100635.90
2018-08-28T12:59:02.401Z,100630.34
2018-08-28T13:01:30.928Z,100627.81
2018-08-28T13:04:00.293Z,100625.74
2018-08-28T13:06:29.289Z,100626.72
2018-08-28T13:08:58.063Z,100629.02
2018-08-28T13:11:27.150Z,100624.02
2018-08-28T13:13:55.713Z,100623.50
2018-08-28T13:16:25.235Z,100618.52
2018-08-28T13:18:54.664Z,100613.28
2018-08-28T13:21:23.229Z,100616.79
2018-08-28T13:23:53.383Z,100619.08
2018-08-28T13:26:21.884Z,100614.23
2018-08-28T13:28:50.413Z,100616.52
2018-08-28T13:31:18.890Z,100620.76
2018-08-28T13:33:47.259Z,100615.98
2018-08-28T13:36:15.747Z,100612.08
2018-08-28T13:38:44.186Z,100608.88
2018-08-28T13:41:12.643Z,100600.22
2018-08-28T13:43:41.187Z,100597.48
2018-08-28T13:46:11.049Z,100603.71
2018-08-28T13:48:44.575Z,100597.43
2018-08-28T13:51:17.537Z,100596.23
2018-08-28T13:53:46.475Z,100598.31
2018-08-28T13:56:14.913Z,100590.91
2018-08-28T13:58:43.617Z,100593.97
2018-08-28T14:01:12.037Z,100589.03
2018-08-28T14:03:40.441Z,100595.98
2018-08-28T14:06:08.878Z,100590.25
2018-08-28T14:08:37.557Z,100589.66
2018-08-28T14:11:06.126Z,100589.76
2018-08-28T14:13:34.637Z,100585.72
2018-08-28T14:16:03.053Z,100590.11
2018-08-28T14:18:32.137Z,100590.27
2018-08-28T14:21:00.604Z,100588.64
2018-08-28T14:23:29.085Z,100593.30
2018-08-28T14:25:57.608Z,100591.61
2018-08-28T14:28:26.177Z,100599.13
2018-08-28T14:30:54.907Z,100591.87
2018-08-28T14:33:23.378Z,100592.97
2018-08-28T14:35:51.882Z,100592.69
2018-08-28T14:38:20.629Z,100592.04
2018-08-28T14:40:49.150Z,100592.91
2018-08-28T14:43:17.541Z,100586.27
2018-08-28T14:45:45.969Z,100587.27
2018-08-28T14:48:14.526Z,100580.11
2018-08-28T14:50:43.155Z,100582.48
2018-08-28T14:53:11.941Z,100580.34
2018-08-28T14:55:55.145Z,100575.48
2018-08-28T14:58:23.629Z,100578.58
2018-08-28T15:00:52.105Z,100572.97
2018-08-28T15:03:20.580Z,100573.16
2018-08-28T15:05:49.219Z,100579.98
2018-08-28T15:08:17.608Z,100577.94
2018-08-28T15:10:46.006Z,100572.81
2018-08-28T15:13:14.964Z,100577.58
2018-08-28T15:15:43.460Z,100580.19
2018-08-28T15:18:12.086Z,100579.13
2018-08-28T15:20:40.616Z,100579.83
2018-08-28T15:23:09.305Z,100577.62
2018-08-28T15:25:37.807Z,100579.50
2018-08-28T15:28:06.475Z,100578.27
2018-08-28T15:30:35.089Z,100577.97
2018-08-28T15:33:03.713Z,100579.48
2018-08-28T15:35:32.215Z,100576.58
2018-08-28T15:38:00.756Z,100569.42
2018-08-28T15:40:29.243Z,100573.57
2018-08-28T15:42:57.834Z,100569.16
2018-08-28T15:45:26.349Z,100568.31
2018-08-28T15:47:54.803Z,100571.59
2018-08-28T15:50:23.420Z,100568.03
2018-08-28T15:52:51.967Z,100570.02
2018-08-28T15:55:20.436Z,100566.93
2018-08-28T15:57:48.963Z,100569.80
2018-08-28T16:00:18.497Z,100566.59
2018-08-28T16:02:47.331Z,100568.51
2018-08-28T16:05:16.122Z,100575.95
2018-08-28T16:07:45.419Z,100571.15
2018-08-28T16:10:14.193Z,100570.08
2018-08-28T16:12:43.213Z,100574.08
2018-08-28T16:15:11.712Z,100571.66
2018-08-28T16:17:40.213Z,100573.89
2018-08-28T16:20:08.851Z,100570.95
2018-08-28T16:22:43.247Z,100561.97
2018-08-28T16:25:11.753Z,100568.16
2018-08-28T16:27:40.589Z,100564.60
2018-08-28T16:30:09.377Z,100558.48
2018-08-28T16:32:37.840Z,100560.17
2018-08-28T16:35:06.631Z,100556.97
2018-08-28T16:37:35.178Z,100552.90
2018-08-28T16:40:05.415Z,100553.27
2018-08-28T16:42:34.259Z,100551.47
2018-08-28T16:45:02.951Z,100548.20
2018-08-28T16:47:31.797Z,100547.84
2018-08-28T16:50:00.449Z,100547.84
2018-08-28T16:52:28.965Z,100552.60
2018-08-28T16:54:57.790Z,100548.48
2018-08-28T16:57:26.631Z,100550.20
2018-08-28T16:59:55.585Z,100559.98
2018-08-28T17:02:24.263Z,100554.70
2018-08-28T17:04:53.710Z,100550.19
2018-08-28T17:07:22.962Z,100555.48
2018-08-28T17:09:53.399Z,100547.70
2018-08-28T17:12:24.868Z,100545.77
2018-08-28T17:14:53.841Z,100548.84
2018-08-28T17:17:23.648Z,100546.96
2018-08-28T17:19:53.407Z,100546.66
2018-08-28T17:22:22.139Z,100554.80
2018-08-28T17:24:50.925Z,100552.08
2018-08-28T17:27:19.775Z,100548.16
2018-08-28T17:32:32.426Z,100552.00
2018-08-28T17:35:01.115Z,100550.23
2018-08-28T17:37:29.954Z,100549.57
2018-08-28T17:39:58.407Z,100547.80
2018-08-28T17:42:26.956Z,100549.63
2018-08-28T17:44:55.388Z,100546.42
2018-08-28T17:47:24.523Z,100551.08
2018-08-28T17:49:55.764Z,100555.06
2018-08-28T17:52:24.176Z,100551.84
2018-08-28T17:54:52.780Z,100555.30
2018-08-28T17:57:21.718Z,100547.30
2018-08-28T17:59:50.257Z,100544.09
2018-08-28T18:02:18.823Z,100552.72
2018-08-28T18:04:47.398Z,100555.92
2018-08-28T18:07:15.901Z,100558.36
2018-08-28T18:09:44.889Z,100558.77
2018-08-28T18:12:13.486Z,100548.16
2018-08-28T18:14:42.000Z,100558.91
2018-08-28T18:17:10.734Z,100556.92
2018-08-28T18:19:39.443Z,100553.85
2018-08-28T18:22:08.010Z,100553.62
2018-08-28T18:24:36.586Z,100551.50
2018-08-28T18:27:05.632Z,100561.20
2018-08-28T18:29:39.357Z,100563.56
2018-08-28T18:32:08.469Z,100564.41
2018-08-28T18:34:37.317Z,100564.96
2018-08-28T18:37:07.845Z,100574.45
2018-08-28T18:39:37.079Z,100567.35
2018-08-28T18:42:06.181Z,100578.19
2018-08-28T18:44:35.912Z,100574.03
2018-08-28T18:47:04.831Z,100576.36
2018-08-28T18:49:33.666Z,100569.20
2018-08-28T18:52:02.284Z,100573.95
2018-08-28T18:54:31.248Z,100574.08
2018-08-28T18:57:00.527Z,100571.17
2018-08-28T18:59:33.229Z,100571.20
2018-08-28T19:02:02.196Z,100564.30
2018-08-28T19:04:30.830Z,100569.02
2018-08-28T19:07:00.141Z,100566.98
2018-08-28T19:09:29.621Z,100561.86
2018-08-28T19:11:59.205Z,100558.92
2018-08-28T19:14:30.231Z,100561.72
2018-08-28T19:16:58.978Z,100566.14
2018-08-28T19:19:28.158Z,100563.21
2018-08-28T19:21:56.968Z,100568.53
2018-08-28T19:24:25.808Z,100568.73
2018-08-28T19:26:54.525Z,100572.37
2018-08-28T19:29:23.203Z,100567.23
2018-08-28T19:31:51.990Z,100567.48
2018-08-28T19:34:20.531Z,100567.17
2018-08-28T19:36:48.956Z,100577.29
2018-08-28T19:39:17.879Z,100572.35
2018-08-28T19:41:46.685Z,100575.41
2018-08-28T19:44:15.427Z,100575.05
2018-08-28T19:46:44.140Z,100565.19
2018-08-28T19:49:13.033Z,100568.02
2018-08-28T19:51:41.762Z,100552.93
2018-08-28T19:54:10.348Z,100553.16
2018-08-28T19:56:39.032Z,100555.34
2018-08-28T19:59:07.592Z,100557.81
2018-08-28T20:01:36.511Z,100561.55
2018-08-28T20:04:05.379Z,100558.19
2018-08-28T20:06:33.787Z,100554.60
2018-08-28T20:09:02.349Z,100559.80
2018-08-28T20:11:31.282Z,100564.78
2018-08-28T20:13:59.829Z,100558.92
2018-08-28T20:16:28.402Z,100565.45
2018-08-28T20:18:56.935Z,100563.88
2018-08-28T20:21:25.657Z,100557.81
2018-08-28T20:23:54.185Z,100563.92
2018-08-28T20:26:23.104Z,100558.75
2018-08-28T20:28:52.337Z,100554.59
2018-08-28T20:31:21.182Z,100556.48
2018-08-28T20:33:49.718Z,100549.29
2018-08-28T20:36:18.121Z,100549.25
2018-08-28T20:38:46.784Z,100553.88
2018-08-28T20:41:15.343Z,100546.13
2018-08-28T20:43:43.912Z,100550.77
2018-08-28T20:46:12.349Z,100545.72
2018-08-28T20:48:40.912Z,100550.21
2018-08-28T20:51:09.355Z,100546.04
2018-08-28T20:53:37.867Z,100541.76
2018-08-28T20:56:06.432Z,100544.46
2018-08-28T20:58:35.247Z,100544.00
2018-08-28T21:01:03.691Z,100538.64
2018-08-28T21:03:32.190Z,100545.17
2018-08-28T21:06:00.623Z,100538.06
2018-08-28T21:08:29.901Z,100542.77
2018-08-28T21:10:58.352Z,100544.70
2018-08-28T21:13:26.899Z,100537.83
2018-08-28T21:15:55.489Z,100532.00
2018-08-28T21:18:24.275Z,100539.66
2018-08-28T21:20:52.860Z,100537.10
2018-08-28T21:23:21.376Z,100535.87
2018-08-28T21:25:49.818Z,100547.13
2018-08-28T21:28:18.287Z,100542.50
2018-08-28T21:30:46.708Z,100542.85
2018-08-28T21:33:15.144Z,100538.45
2018-08-28T21:35:43.611Z,100537.67
2018-08-28T21:38:12.177Z,100537.45
2018-08-28T21:40:40.658Z,100538.48
2018-08-28T21:43:09.152Z,100538.70
2018-08-28T21:45:37.540Z,100542.30
2018-08-28T21:48:06.171Z,100537.01
2018-08-28T21:50:34.604Z,100534.55
2018-08-28T21:53:03.110Z,100533.97
2018-08-28T21:55:31.513Z,100540.59
2018-08-28T21:58:00.535Z,100545.22
2018-08-28T22:00:29.128Z,100537.58
2018-08-28T22:02:57.702Z,100537.46
2018-08-28T22:05:31.043Z,100538.11
2018-08-28T22:08:03.008Z,100536.77
2018-08-28T22:10:32.105Z,100532.28
2018-08-28T22:13:00.626Z,100532.02
2018-08-28T22:15:29.167Z,100528.65
2018-08-28T22:17:57.712Z,100530.88
2018-08-28T22:20:26.230Z,100528.87
2018-08-28T22:22:54.676Z,100531.11
2018-08-28T22:25:23.185Z,100529.20
2018-08-28T22:27:51.576Z,100530.66
2018-08-28T22:30:20.263Z,100531.54
2018-08-28T22:32:48.758Z,100531.23
2018-08-28T22:35:17.252Z,100528.30
2018-08-28T22:37:46.067Z,100526.61
2018-08-28T22:40:14.514Z,100530.66
2018-08-28T22:42:42.990Z,100526.38
2018-08-28T22:45:11.505Z,100527.06
2018-08-28T22:47:39.958Z,100526.36
2018-08-28T22:50:08.542Z,100524.81
2018-08-28T22:52:38.578Z,100521.41
2018-08-28T22:55:07.219Z,100523.34
2018-08-28T22:57:36.486Z,100518.28
2018-08-28T23:00:06.869Z,100520.06
2018-08-28T23:02:35.512Z,100508.95
2018-08-28T23:05:04.148Z,100507.92
2018-08-28T23:07:32.944Z,100510.58
2018-08-28T23:10:01.617Z,100510.34
2018-08-28T23:12:30.370Z,100510.58
2018-08-28T23:14:58.998Z,100508.45
2018-08-28T23:17:27.599Z,100505.63
2018-08-28T23:19:56.437Z,100503.61
2018-08-28T23:22:25.125Z,100502.72
2018-08-28T23:24:53.804Z,100501.25
2018-08-28T23:27:23.088Z,100503.41
2018-08-28T23:29:52.073Z,100502.05
2018-08-28T23:32:20.722Z,100502.83
2018-08-28T23:34:49.372Z,100497.87
2018-08-28T23:37:18.012Z,100498.97
2018-08-28T23:39:46.797Z,100497.27
2018-08-28T23:42:15.370Z,100487.00
2018-08-28T23:44:44.058Z,100487.34
2018-08-28T23:47:12.782Z,100487.11
2018-08-28T23:49:41.464Z,100479.02
2018-08-28T23:52:10.219Z,100488.89
2018-08-28T23:54:38.868Z,100481.69
2018-08-28T23:57:07.561Z,100482.13
2018-08-28T23:59:36.268Z,100484.45
